sensor_id;sensor_type;location;lat;lon;timestamp;P1;durP1;ratioP1;P2;durP2;ratioP2
25153;SDS011;47555;51.038;6.280;2022-11-20T00:00:47;19.73;;;10.80;;
25153;SDS011;47555;51.038;6.280;2022-11-20T00:03:12;22.42;;;11.40;;
25153;SDS011;47555;51.038;6.280;2022-11-20T00:05:38;25.02;;;11.13;;
25153;SDS011;47555;51.038;6.280;2022-11-20T00:08:04;23.33;;;11.38;;
25153;SDS011;47555;51.038;6.280;2022-11-20T00:10:30;22.30;;;11.15;;
25153;SDS011;47555;51.038;6.280;2022-11-20T00:12:57;22.85;;;11.93;;
25153;SDS011;47555;51.038;6.280;2022-11-20T00:15:23;21.85;;;11.52;;
25153;SDS011;47555;51.038;6.280;2022-11-20T00:17:48;22.48;;;11.00;;
25153;SDS011;47555;51.038;6.280;2022-11-20T00:20:14;24.75;;;11.32;;
25153;SDS011;47555;51.038;6.280;2022-11-20T00:22:39;20.83;;;10.55;;
25153;SDS011;47555;51.038;6.280;2022-11-20T00:25:05;23.63;;;12.68;;
25153;SDS011;47555;51.038;6.280;2022-11-20T00:27:34;22.55;;;11.82;;
25153;SDS011;47555;51.038;6.280;2022-11-20T00:29:59;25.38;;;11.95;;
25153;SDS011;47555;51.038;6.280;2022-11-20T00:32:25;22.08;;;11.43;;
25153;SDS011;47555;51.038;6.280;2022-11-20T00:34:50;24.40;;;11.93;;
25153;SDS011;47555;51.038;6.280;2022-11-20T00:43:36;20.90;;;10.80;;
25153;SDS011;47555;51.038;6.280;2022-11-20T00:46:03;22.02;;;11.90;;
25153;SDS011;47555;51.038;6.280;2022-11-20T00:48:30;22.13;;;11.23;;
25153;SDS011;47555;51.038;6.280;2022-11-20T00:50:56;27.52;;;12.25;;
25153;SDS011;47555;51.038;6.280;2022-11-20T00:53:22;24.30;;;12.57;;
25153;SDS011;47555;51.038;6.280;2022-11-20T00:55:55;25.42;;;11.80;;
25153;SDS011;47555;51.038;6.280;2022-11-20T00:58:22;23.10;;;12.05;;
25153;SDS011;47555;51.038;6.280;2022-11-20T01:00:48;23.50;;;11.35;;
25153;SDS011;47555;51.038;6.280;2022-11-20T01:03:17;23.92;;;12.07;;
25153;SDS011;47555;51.038;6.280;2022-11-20T01:05:44;23.00;;;11.02;;
25153;SDS011;47555;51.038;6.280;2022-11-20T01:08:09;24.48;;;11.32;;
25153;SDS011;47555;51.038;6.280;2022-11-20T01:10:35;26.30;;;12.60;;
25153;SDS011;47555;51.038;6.280;2022-11-20T01:13:01;23.52;;;12.00;;
25153;SDS011;47555;51.038;6.280;2022-11-20T01:22:30;21.30;;;11.35;;
25153;SDS011;47555;51.038;6.280;2022-11-20T01:24:55;22.20;;;11.40;;
25153;SDS011;47555;51.038;6.280;2022-11-20T01:27:21;22.10;;;11.02;;
25153;SDS011;47555;51.038;6.280;2022-11-20T01:29:46;20.77;;;11.77;;
25153;SDS011;47555;51.038;6.280;2022-11-20T01:32:12;21.30;;;11.27;;
25153;SDS011;47555;51.038;6.280;2022-11-20T01:34:37;23.52;;;12.30;;
25153;SDS011;47555;51.038;6.280;2022-11-20T01:37:03;22.58;;;11.85;;
25153;SDS011;47555;51.038;6.280;2022-11-20T01:39:28;25.30;;;11.65;;
25153;SDS011;47555;51.038;6.280;2022-11-20T01:41:55;23.17;;;12.57;;
25153;SDS011;47555;51.038;6.280;2022-11-20T01:45:01;24.20;;;12.70;;
25153;SDS011;47555;51.038;6.280;2022-11-20T01:47:32;18.83;;;10.30;;
25153;SDS011;47555;51.038;6.280;2022-11-20T01:55:21;19.92;;;10.75;;
25153;SDS011;47555;51.038;6.280;2022-11-20T01:57:49;24.55;;;11.45;;
25153;SDS011;47555;51.038;6.280;2022-11-20T02:00:16;27.25;;;12.55;;
25153;SDS011;47555;51.038;6.280;2022-11-20T02:02:45;20.20;;;11.43;;
25153;SDS011;47555;51.038;6.280;2022-11-20T02:05:23;20.95;;;11.15;;
25153;SDS011;47555;51.038;6.280;2022-11-20T02:07:52;21.15;;;10.75;;
25153;SDS011;47555;51.038;6.280;2022-11-20T02:10:20;24.10;;;11.68;;
25153;SDS011;47555;51.038;6.280;2022-11-20T02:12:46;19.55;;;10.43;;
25153;SDS011;47555;51.038;6.280;2022-11-20T02:15:32;25.02;;;11.68;;
25153;SDS011;47555;51.038;6.280;2022-11-20T02:17:58;20.15;;;10.70;;
25153;SDS011;47555;51.038;6.280;2022-11-20T02:20:23;24.35;;;11.48;;
25153;SDS011;47555;51.038;6.280;2022-11-20T02:23:06;20.83;;;11.10;;
25153;SDS011;47555;51.038;6.280;2022-11-20T02:25:38;21.92;;;11.02;;
25153;SDS011;47555;51.038;6.280;2022-11-20T02:28:06;23.63;;;11.68;;
25153;SDS011;47555;51.038;6.280;2022-11-20T02:30:31;24.25;;;11.30;;
25153;SDS011;47555;51.038;6.280;2022-11-20T02:32:57;24.35;;;11.75;;
25153;SDS011;47555;51.038;6.280;2022-11-20T02:37:52;21.50;;;11.55;;
25153;SDS011;47555;51.038;6.280;2022-11-20T02:40:19;23.67;;;12.23;;
25153;SDS011;47555;51.038;6.280;2022-11-20T02:42:45;23.60;;;12.02;;
25153;SDS011;47555;51.038;6.280;2022-11-20T02:45:11;23.92;;;11.43;;
25153;SDS011;47555;51.038;6.280;2022-11-20T02:47:36;19.83;;;11.65;;
25153;SDS011;47555;51.038;6.280;2022-11-20T02:50:02;26.02;;;12.48;;
25153;SDS011;47555;51.038;6.280;2022-11-20T02:52:29;27.00;;;11.10;;
25153;SDS011;47555;51.038;6.280;2022-11-20T02:54:55;24.10;;;11.93;;
25153;SDS011;47555;51.038;6.280;2022-11-20T02:57:20;24.42;;;11.52;;
25153;SDS011;47555;51.038;6.280;2022-11-20T02:59:46;24.67;;;12.23;;
25153;SDS011;47555;51.038;6.280;2022-11-20T03:02:12;21.98;;;10.95;;
25153;SDS011;47555;51.038;6.280;2022-11-20T03:04:37;21.58;;;11.05;;
25153;SDS011;47555;51.038;6.280;2022-11-20T03:07:03;24.42;;;10.68;;
25153;SDS011;47555;51.038;6.280;2022-11-20T03:09:29;21.98;;;11.07;;
25153;SDS011;47555;51.038;6.280;2022-11-20T03:11:55;24.48;;;11.40;;
25153;SDS011;47555;51.038;6.280;2022-11-20T03:14:21;24.63;;;11.50;;
25153;SDS011;47555;51.038;6.280;2022-11-20T03:16:46;23.52;;;11.25;;
25153;SDS011;47555;51.038;6.280;2022-11-20T03:19:12;23.85;;;11.27;;
25153;SDS011;47555;51.038;6.280;2022-11-20T03:21:37;27.40;;;12.18;;
25153;SDS011;47555;51.038;6.280;2022-11-20T03:24:05;24.52;;;11.38;;
25153;SDS011;47555;51.038;6.280;2022-11-20T03:26:32;23.33;;;11.55;;
25153;SDS011;47555;51.038;6.280;2022-11-20T03:28:58;28.48;;;12.48;;
25153;SDS011;47555;51.038;6.280;2022-11-20T03:31:26;22.73;;;10.98;;
25153;SDS011;47555;51.038;6.280;2022-11-20T03:33:53;26.70;;;11.30;;
25153;SDS011;47555;51.038;6.280;2022-11-20T03:36:19;27.70;;;12.98;;
25153;SDS011;47555;51.038;6.280;2022-11-20T03:38:46;23.45;;;12.55;;
25153;SDS011;47555;51.038;6.280;2022-11-20T03:41:13;25.92;;;11.50;;
25153;SDS011;47555;51.038;6.280;2022-11-20T03:43:40;23.42;;;11.52;;
25153;SDS011;47555;51.038;6.280;2022-11-20T03:46:06;22.40;;;10.63;;
25153;SDS011;47555;51.038;6.280;2022-11-20T03:48:32;23.17;;;11.10;;
25153;SDS011;47555;51.038;6.280;2022-11-20T03:51:08;26.10;;;12.63;;
25153;SDS011;47555;51.038;6.280;2022-11-20T03:54:01;24.83;;;11.73;;
25153;SDS011;47555;51.038;6.280;2022-11-20T03:56:30;22.55;;;11.57;;
25153;SDS011;47555;51.038;6.280;2022-11-20T03:58:57;22.77;;;11.45;;
25153;SDS011;47555;51.038;6.280;2022-11-20T04:01:29;25.23;;;12.10;;
25153;SDS011;47555;51.038;6.280;2022-11-20T04:03:59;24.42;;;12.10;;
25153;SDS011;47555;51.038;6.280;2022-11-20T04:06:43;23.00;;;11.57;;
25153;SDS011;47555;51.038;6.280;2022-11-20T04:09:08;23.63;;;11.35;;
25153;SDS011;47555;51.038;6.280;2022-11-20T04:11:35;23.10;;;11.77;;
25153;SDS011;47555;51.038;6.280;2022-11-20T04:14:06;25.88;;;11.82;;
25153;SDS011;47555;51.038;6.280;2022-11-20T04:16:36;24.88;;;12.68;;
25153;SDS011;47555;51.038;6.280;2022-11-20T04:19:03;24.25;;;12.80;;
25153;SDS011;47555;51.038;6.280;2022-11-20T04:21:31;27.33;;;13.35;;
25153;SDS011;47555;51.038;6.280;2022-11-20T04:23:56;24.10;;;12.35;;
25153;SDS011;47555;51.038;6.280;2022-11-20T04:26:23;27.38;;;12.85;;
25153;SDS011;47555;51.038;6.280;2022-11-20T04:28:50;24.05;;;12.77;;
25153;SDS011;47555;51.038;6.280;2022-11-20T04:31:17;27.25;;;13.32;;
25153;SDS011;47555;51.038;6.280;2022-11-20T04:33:44;24.25;;;13.07;;
25153;SDS011;47555;51.038;6.280;2022-11-20T04:42:35;23.85;;;11.70;;
25153;SDS011;47555;51.038;6.280;2022-11-20T04:45:00;24.85;;;12.25;;
25153;SDS011;47555;51.038;6.280;2022-11-20T04:47:26;26.35;;;12.70;;
25153;SDS011;47555;51.038;6.280;2022-11-20T04:49:51;21.67;;;11.65;;
25153;SDS011;47555;51.038;6.280;2022-11-20T04:52:17;22.65;;;11.00;;
25153;SDS011;47555;51.038;6.280;2022-11-20T04:54:42;24.20;;;12.27;;
25153;SDS011;47555;51.038;6.280;2022-11-20T04:57:08;26.58;;;12.85;;
25153;SDS011;47555;51.038;6.280;2022-11-20T04:59:33;22.77;;;11.32;;
25153;SDS011;47555;51.038;6.280;2022-11-20T05:01:59;25.15;;;12.18;;
25153;SDS011;47555;51.038;6.280;2022-11-20T05:04:24;25.13;;;12.73;;
25153;SDS011;47555;51.038;6.280;2022-11-20T05:06:50;21.65;;;12.02;;
25153;SDS011;47555;51.038;6.280;2022-11-20T05:09:15;28.20;;;12.95;;
25153;SDS011;47555;51.038;6.280;2022-11-20T05:11:41;24.70;;;12.75;;
25153;SDS011;47555;51.038;6.280;2022-11-20T05:14:06;24.48;;;12.55;;
25153;SDS011;47555;51.038;6.280;2022-11-20T05:16:33;23.58;;;12.73;;
25153;SDS011;47555;51.038;6.280;2022-11-20T05:19:00;27.27;;;14.00;;
25153;SDS011;47555;51.038;6.280;2022-11-20T05:21:25;23.58;;;12.70;;
25153;SDS011;47555;51.038;6.280;2022-11-20T05:23:52;24.25;;;12.40;;
25153;SDS011;47555;51.038;6.280;2022-11-20T05:26:19;21.95;;;12.07;;
25153;SDS011;47555;51.038;6.280;2022-11-20T05:28:49;23.05;;;13.10;;
25153;SDS011;47555;51.038;6.280;2022-11-20T05:31:16;24.88;;;12.40;;
25153;SDS011;47555;51.038;6.280;2022-11-20T05:33:43;26.58;;;12.15;;
25153;SDS011;47555;51.038;6.280;2022-11-20T05:36:10;24.77;;;12.73;;
25153;SDS011;47555;51.038;6.280;2022-11-20T05:38:37;26.73;;;13.02;;
25153;SDS011;47555;51.038;6.280;2022-11-20T05:41:09;23.20;;;11.23;;
25153;SDS011;47555;51.038;6.280;2022-11-20T05:43:35;27.23;;;12.23;;
25153;SDS011;47555;51.038;6.280;2022-11-20T05:46:02;24.83;;;11.77;;
25153;SDS011;47555;51.038;6.280;2022-11-20T05:48:28;26.35;;;13.27;;
25153;SDS011;47555;51.038;6.280;2022-11-20T05:50:53;25.48;;;13.10;;
25153;SDS011;47555;51.038;6.280;2022-11-20T05:53:19;25.95;;;12.45;;
25153;SDS011;47555;51.038;6.280;2022-11-20T05:55:44;25.88;;;12.43;;
25153;SDS011;47555;51.038;6.280;2022-11-20T05:58:10;25.10;;;13.13;;
25153;SDS011;47555;51.038;6.280;2022-11-20T06:00:35;26.40;;;13.23;;
25153;SDS011;47555;51.038;6.280;2022-11-20T06:03:01;24.23;;;12.48;;
25153;SDS011;47555;51.038;6.280;2022-11-20T06:05:27;24.40;;;12.82;;
25153;SDS011;47555;51.038;6.280;2022-11-20T06:07:52;24.38;;;11.68;;
25153;SDS011;47555;51.038;6.280;2022-11-20T06:10:18;23.75;;;12.63;;
25153;SDS011;47555;51.038;6.280;2022-11-20T06:12:43;24.08;;;12.82;;
25153;SDS011;47555;51.038;6.280;2022-11-20T06:15:09;25.38;;;11.90;;
25153;SDS011;47555;51.038;6.280;2022-11-20T06:17:35;22.33;;;11.65;;
25153;SDS011;47555;51.038;6.280;2022-11-20T06:20:00;25.25;;;13.00;;
25153;SDS011;47555;51.038;6.280;2022-11-20T06:22:26;24.55;;;12.40;;
25153;SDS011;47555;51.038;6.280;2022-11-20T06:24:51;22.40;;;12.65;;
25153;SDS011;47555;51.038;6.280;2022-11-20T06:27:17;24.08;;;12.35;;
25153;SDS011;47555;51.038;6.280;2022-11-20T06:29:43;26.95;;;13.77;;
25153;SDS011;47555;51.038;6.280;2022-11-20T06:32:08;24.17;;;13.82;;
25153;SDS011;47555;51.038;6.280;2022-11-20T06:34:34;26.67;;;12.75;;
25153;SDS011;47555;51.038;6.280;2022-11-20T06:39:29;26.27;;;13.35;;
25153;SDS011;47555;51.038;6.280;2022-11-20T06:41:54;22.75;;;12.50;;
25153;SDS011;47555;51.038;6.280;2022-11-20T06:44:22;30.70;;;13.75;;
25153;SDS011;47555;51.038;6.280;2022-11-20T06:46:48;26.90;;;12.80;;
25153;SDS011;47555;51.038;6.280;2022-11-20T06:49:13;26.67;;;14.32;;
25153;SDS011;47555;51.038;6.280;2022-11-20T06:51:39;24.50;;;13.00;;
25153;SDS011;47555;51.038;6.280;2022-11-20T06:54:04;30.77;;;13.65;;
25153;SDS011;47555;51.038;6.280;2022-11-20T06:56:30;24.48;;;12.23;;
25153;SDS011;47555;51.038;6.280;2022-11-20T06:58:55;26.95;;;13.05;;
25153;SDS011;47555;51.038;6.280;2022-11-20T07:01:21;22.55;;;12.35;;
25153;SDS011;47555;51.038;6.280;2022-11-20T07:03:48;27.63;;;13.32;;
25153;SDS011;47555;51.038;6.280;2022-11-20T07:06:15;28.80;;;13.52;;
25153;SDS011;47555;51.038;6.280;2022-11-20T07:08:40;25.00;;;11.98;;
25153;SDS011;47555;51.038;6.280;2022-11-20T07:11:06;24.42;;;12.50;;
25153;SDS011;47555;51.038;6.280;2022-11-20T07:13:32;25.85;;;12.75;;
25153;SDS011;47555;51.038;6.280;2022-11-20T07:16:02;27.00;;;12.98;;
25153;SDS011;47555;51.038;6.280;2022-11-20T07:18:29;34.47;;;13.90;;
25153;SDS011;47555;51.038;6.280;2022-11-20T07:20:55;31.10;;;14.38;;
25153;SDS011;47555;51.038;6.280;2022-11-20T07:23:21;32.80;;;14.57;;
25153;SDS011;47555;51.038;6.280;2022-11-20T07:25:46;35.38;;;14.88;;
25153;SDS011;47555;51.038;6.280;2022-11-20T07:28:12;35.15;;;14.80;;
25153;SDS011;47555;51.038;6.280;2022-11-20T07:30:38;33.45;;;15.63;;
25153;SDS011;47555;51.038;6.280;2022-11-20T07:33:04;38.83;;;14.90;;
25153;SDS011;47555;51.038;6.280;2022-11-20T07:35:29;38.22;;;15.77;;
25153;SDS011;47555;51.038;6.280;2022-11-20T07:37:55;39.38;;;17.08;;
25153;SDS011;47555;51.038;6.280;2022-11-20T07:40:20;36.17;;;14.60;;
25153;SDS011;47555;51.038;6.280;2022-11-20T07:45:15;35.63;;;15.00;;
25153;SDS011;47555;51.038;6.280;2022-11-20T07:47:42;31.48;;;14.38;;
25153;SDS011;47555;51.038;6.280;2022-11-20T07:50:07;34.85;;;15.57;;
25153;SDS011;47555;51.038;6.280;2022-11-20T07:52:33;42.67;;;16.42;;
25153;SDS011;47555;51.038;6.280;2022-11-20T07:54:58;40.05;;;15.38;;
25153;SDS011;47555;51.038;6.280;2022-11-20T07:57:24;38.13;;;16.10;;
25153;SDS011;47555;51.038;6.280;2022-11-20T07:59:50;43.45;;;16.02;;
25153;SDS011;47555;51.038;6.280;2022-11-20T08:02:15;39.25;;;14.85;;
25153;SDS011;47555;51.038;6.280;2022-11-20T08:04:41;35.55;;;14.25;;
25153;SDS011;47555;51.038;6.280;2022-11-20T08:07:20;42.13;;;16.52;;
25153;SDS011;47555;51.038;6.280;2022-11-20T08:09:46;39.45;;;16.23;;
25153;SDS011;47555;51.038;6.280;2022-11-20T08:12:19;42.25;;;15.38;;
25153;SDS011;47555;51.038;6.280;2022-11-20T08:15:03;38.30;;;15.80;;
25153;SDS011;47555;51.038;6.280;2022-11-20T08:17:30;40.45;;;15.20;;
25153;SDS011;47555;51.038;6.280;2022-11-20T08:19:55;42.40;;;16.63;;
25153;SDS011;47555;51.038;6.280;2022-11-20T08:22:21;43.70;;;16.50;;
25153;SDS011;47555;51.038;6.280;2022-11-20T08:24:46;35.92;;;16.92;;
25153;SDS011;47555;51.038;6.280;2022-11-20T08:27:12;39.90;;;15.75;;
25153;SDS011;47555;51.038;6.280;2022-11-20T08:29:38;42.63;;;18.15;;
25153;SDS011;47555;51.038;6.280;2022-11-20T08:32:04;36.00;;;15.55;;
25153;SDS011;47555;51.038;6.280;2022-11-20T08:34:29;39.38;;;15.15;;
25153;SDS011;47555;51.038;6.280;2022-11-20T08:36:54;35.17;;;14.95;;
25153;SDS011;47555;51.038;6.280;2022-11-20T08:39:20;36.22;;;14.55;;
25153;SDS011;47555;51.038;6.280;2022-11-20T08:41:45;35.67;;;14.70;;
25153;SDS011;47555;51.038;6.280;2022-11-20T08:44:11;34.00;;;14.73;;
25153;SDS011;47555;51.038;6.280;2022-11-20T08:46:38;37.70;;;14.48;;
25153;SDS011;47555;51.038;6.280;2022-11-20T08:49:06;40.35;;;15.13;;
25153;SDS011;47555;51.038;6.280;2022-11-20T08:51:34;37.67;;;15.05;;
25153;SDS011;47555;51.038;6.280;2022-11-20T08:54:00;28.20;;;13.07;;
25153;SDS011;47555;51.038;6.280;2022-11-20T08:56:25;28.55;;;13.90;;
25153;SDS011;47555;51.038;6.280;2022-11-20T08:58:51;29.63;;;13.80;;
25153;SDS011;47555;51.038;6.280;2022-11-20T09:01:17;36.72;;;14.25;;
25153;SDS011;47555;51.038;6.280;2022-11-20T09:03:46;30.98;;;13.65;;
25153;SDS011;47555;51.038;6.280;2022-11-20T09:06:12;33.45;;;13.68;;
25153;SDS011;47555;51.038;6.280;2022-11-20T09:08:38;36.03;;;14.80;;
25153;SDS011;47555;51.038;6.280;2022-11-20T09:11:04;34.65;;;15.02;;
25153;SDS011;47555;51.038;6.280;2022-11-20T09:13:31;31.00;;;14.75;;
25153;SDS011;47555;51.038;6.280;2022-11-20T09:16:02;39.00;;;15.77;;
25153;SDS011;47555;51.038;6.280;2022-11-20T09:18:32;41.10;;;14.85;;
25153;SDS011;47555;51.038;6.280;2022-11-20T09:21:01;35.15;;;15.15;;
25153;SDS011;47555;51.038;6.280;2022-11-20T09:23:31;37.63;;;15.38;;
25153;SDS011;47555;51.038;6.280;2022-11-20T09:25:58;33.38;;;13.25;;
25153;SDS011;47555;51.038;6.280;2022-11-20T09:28:27;29.85;;;12.27;;
25153;SDS011;47555;51.038;6.280;2022-11-20T09:30:53;26.85;;;12.68;;
25153;SDS011;47555;51.038;6.280;2022-11-20T09:33:18;28.60;;;12.27;;
25153;SDS011;47555;51.038;6.280;2022-11-20T09:35:44;28.20;;;13.80;;
25153;SDS011;47555;51.038;6.280;2022-11-20T09:38:09;26.08;;;12.63;;
25153;SDS011;47555;51.038;6.280;2022-11-20T09:40:37;29.45;;;12.73;;
25153;SDS011;47555;51.038;6.280;2022-11-20T09:43:09;28.95;;;14.27;;
25153;SDS011;47555;51.038;6.280;2022-11-20T09:45:46;27.48;;;12.52;;
25153;SDS011;47555;51.038;6.280;2022-11-20T09:56:53;31.85;;;12.93;;
25153;SDS011;47555;51.038;6.280;2022-11-20T09:59:27;35.20;;;13.93;;
25153;SDS011;47555;51.038;6.280;2022-11-20T10:04:50;28.85;;;13.10;;
25153;SDS011;47555;51.038;6.280;2022-11-20T10:07:33;31.67;;;13.18;;
25153;SDS011;47555;51.038;6.280;2022-11-20T10:10:13;32.72;;;14.10;;
25153;SDS011;47555;51.038;6.280;2022-11-20T10:12:47;27.48;;;13.05;;
25153;SDS011;47555;51.038;6.280;2022-11-20T10:18:03;35.27;;;13.67;;
25153;SDS011;47555;51.038;6.280;2022-11-20T10:23:16;30.65;;;12.90;;
25153;SDS011;47555;51.038;6.280;2022-11-20T10:31:13;31.10;;;13.07;;
25153;SDS011;47555;51.038;6.280;2022-11-20T10:33:51;27.02;;;12.93;;
25153;SDS011;47555;51.038;6.280;2022-11-20T10:36:21;26.00;;;12.73;;
25153;SDS011;47555;51.038;6.280;2022-11-20T10:39:10;28.25;;;13.27;;
25153;SDS011;47555;51.038;6.280;2022-11-20T10:41:52;34.03;;;14.10;;
25153;SDS011;47555;51.038;6.280;2022-11-20T10:44:22;28.33;;;12.55;;
25153;SDS011;47555;51.038;6.280;2022-11-20T10:47:15;30.88;;;12.77;;
25153;SDS011;47555;51.038;6.280;2022-11-20T10:49:46;35.13;;;13.23;;
25153;SDS011;47555;51.038;6.280;2022-11-20T10:52:28;35.13;;;13.70;;
25153;SDS011;47555;51.038;6.280;2022-11-20T11:00:38;40.05;;;15.25;;
25153;SDS011;47555;51.038;6.280;2022-11-20T11:03:07;40.25;;;15.63;;
25153;SDS011;47555;51.038;6.280;2022-11-20T11:05:49;37.05;;;14.30;;
25153;SDS011;47555;51.038;6.280;2022-11-20T11:08:38;38.55;;;15.93;;
25153;SDS011;47555;51.038;6.280;2022-11-20T11:13:51;36.28;;;15.85;;
25153;SDS011;47555;51.038;6.280;2022-11-20T11:16:19;34.72;;;14.93;;
25153;SDS011;47555;51.038;6.280;2022-11-20T11:18:49;34.13;;;14.25;;
25153;SDS011;47555;51.038;6.280;2022-11-20T11:21:25;32.10;;;13.82;;
25153;SDS011;47555;51.038;6.280;2022-11-20T11:24:01;32.38;;;14.55;;
25153;SDS011;47555;51.038;6.280;2022-11-20T11:26:28;28.70;;;13.43;;
25153;SDS011;47555;51.038;6.280;2022-11-20T11:28:55;30.92;;;14.60;;
25153;SDS011;47555;51.038;6.280;2022-11-20T11:31:22;33.15;;;14.63;;
25153;SDS011;47555;51.038;6.280;2022-11-20T11:33:49;33.42;;;14.65;;
25153;SDS011;47555;51.038;6.280;2022-11-20T11:36:18;31.27;;;14.25;;
25153;SDS011;47555;51.038;6.280;2022-11-20T11:38:48;35.17;;;14.82;;
25153;SDS011;47555;51.038;6.280;2022-11-20T11:41:19;37.38;;;15.07;;
25153;SDS011;47555;51.038;6.280;2022-11-20T11:43:54;32.92;;;13.98;;
25153;SDS011;47555;51.038;6.280;2022-11-20T11:46:44;29.80;;;13.50;;
25153;SDS011;47555;51.038;6.280;2022-11-20T11:49:18;30.85;;;14.35;;
25153;SDS011;47555;51.038;6.280;2022-11-20T11:54:17;32.22;;;15.05;;
25153;SDS011;47555;51.038;6.280;2022-11-20T11:56:46;34.77;;;14.23;;
25153;SDS011;47555;51.038;6.280;2022-11-20T11:59:15;34.05;;;14.75;;
25153;SDS011;47555;51.038;6.280;2022-11-20T12:01:51;33.88;;;14.23;;
25153;SDS011;47555;51.038;6.280;2022-11-20T12:04:30;35.80;;;15.60;;
25153;SDS011;47555;51.038;6.280;2022-11-20T12:10:28;30.50;;;14.13;;
25153;SDS011;47555;51.038;6.280;2022-11-20T12:15:45;27.33;;;12.65;;
25153;SDS011;47555;51.038;6.280;2022-11-20T12:18:14;33.20;;;14.35;;
25153;SDS011;47555;51.038;6.280;2022-11-20T12:20:53;34.55;;;14.40;;
25153;SDS011;47555;51.038;6.280;2022-11-20T12:35:50;38.80;;;14.95;;
25153;SDS011;47555;51.038;6.280;2022-11-20T12:44:36;32.10;;;15.23;;
25153;SDS011;47555;51.038;6.280;2022-11-20T12:47:38;33.50;;;14.60;;
25153;SDS011;47555;51.038;6.280;2022-11-20T12:50:40;36.13;;;15.43;;
25153;SDS011;47555;51.038;6.280;2022-11-20T13:01:50;40.83;;;16.20;;
25153;SDS011;47555;51.038;6.280;2022-11-20T13:07:01;38.38;;;15.38;;
25153;SDS011;47555;51.038;6.280;2022-11-20T13:09:29;38.75;;;16.08;;
25153;SDS011;47555;51.038;6.280;2022-11-20T13:20:02;40.08;;;15.98;;
25153;SDS011;47555;51.038;6.280;2022-11-20T13:22:43;36.28;;;15.73;;
25153;SDS011;47555;51.038;6.280;2022-11-20T13:30:34;38.67;;;15.48;;
25153;SDS011;47555;51.038;6.280;2022-11-20T13:35:35;36.80;;;15.70;;
25153;SDS011;47555;51.038;6.280;2022-11-20T13:38:09;37.03;;;15.57;;
25153;SDS011;47555;51.038;6.280;2022-11-20T13:43:44;36.42;;;14.32;;
25153;SDS011;47555;51.038;6.280;2022-11-20T13:46:12;34.72;;;13.38;;
25153;SDS011;47555;51.038;6.280;2022-11-20T13:48:39;36.78;;;15.25;;
25153;SDS011;47555;51.038;6.280;2022-11-20T13:59:56;36.83;;;14.90;;
25153;SDS011;47555;51.038;6.280;2022-11-20T14:02:41;32.13;;;12.50;;
25153;SDS011;47555;51.038;6.280;2022-11-20T14:05:23;36.55;;;13.45;;
25153;SDS011;47555;51.038;6.280;2022-11-20T14:07:49;33.38;;;14.48;;
25153;SDS011;47555;51.038;6.280;2022-11-20T14:10:23;31.20;;;13.90;;
25153;SDS011;47555;51.038;6.280;2022-11-20T14:12:52;31.70;;;13.80;;
25153;SDS011;47555;51.038;6.280;2022-11-20T14:15:24;31.17;;;13.75;;
25153;SDS011;47555;51.038;6.280;2022-11-20T14:17:51;35.30;;;14.00;;
25153;SDS011;47555;51.038;6.280;2022-11-20T14:20:16;30.30;;;13.65;;
25153;SDS011;47555;51.038;6.280;2022-11-20T14:22:48;36.53;;;15.00;;
25153;SDS011;47555;51.038;6.280;2022-11-20T14:27:41;29.90;;;13.15;;
25153;SDS011;47555;51.038;6.280;2022-11-20T14:32:42;32.22;;;14.95;;
25153;SDS011;47555;51.038;6.280;2022-11-20T14:35:09;27.90;;;13.27;;
25153;SDS011;47555;51.038;6.280;2022-11-20T14:37:39;28.70;;;13.85;;
25153;SDS011;47555;51.038;6.280;2022-11-20T14:40:26;31.42;;;13.02;;
25153;SDS011;47555;51.038;6.280;2022-11-20T14:43:14;31.67;;;14.20;;
25153;SDS011;47555;51.038;6.280;2022-11-20T14:45:41;31.52;;;14.77;;
25153;SDS011;47555;51.038;6.280;2022-11-20T14:48:08;34.72;;;13.55;;
25153;SDS011;47555;51.038;6.280;2022-11-20T14:50:38;33.53;;;15.10;;
25153;SDS011;47555;51.038;6.280;2022-11-20T14:53:04;32.00;;;12.93;;
25153;SDS011;47555;51.038;6.280;2022-11-20T14:55:31;28.17;;;13.85;;
25153;SDS011;47555;51.038;6.280;2022-11-20T14:58:03;26.45;;;11.13;;
25153;SDS011;47555;51.038;6.280;2022-11-20T15:00:30;26.73;;;11.60;;
25153;SDS011;47555;51.038;6.280;2022-11-20T15:02:57;24.77;;;9.93;;
25153;SDS011;47555;51.038;6.280;2022-11-20T15:05:24;22.80;;;10.02;;
25153;SDS011;47555;51.038;6.280;2022-11-20T15:08:08;19.08;;;8.57;;
25153;SDS011;47555;51.038;6.280;2022-11-20T15:10:35;20.85;;;8.65;;
25153;SDS011;47555;51.038;6.280;2022-11-20T15:13:05;21.52;;;9.90;;
25153;SDS011;47555;51.038;6.280;2022-11-20T15:15:43;24.48;;;12.25;;
25153;SDS011;47555;51.038;6.280;2022-11-20T15:21:03;18.90;;;9.45;;
25153;SDS011;47555;51.038;6.280;2022-11-20T15:23:34;21.35;;;9.73;;
25153;SDS011;47555;51.038;6.280;2022-11-20T15:25:59;19.75;;;9.57;;
25153;SDS011;47555;51.038;6.280;2022-11-20T15:28:32;25.13;;;12.35;;
25153;SDS011;47555;51.038;6.280;2022-11-20T15:31:00;24.30;;;10.40;;
25153;SDS011;47555;51.038;6.280;2022-11-20T15:33:28;17.48;;;8.90;;
25153;SDS011;47555;51.038;6.280;2022-11-20T15:35:53;16.45;;;9.15;;
25153;SDS011;47555;51.038;6.280;2022-11-20T15:38:19;19.42;;;8.85;;
25153;SDS011;47555;51.038;6.280;2022-11-20T15:40:44;19.10;;;9.38;;
25153;SDS011;47555;51.038;6.280;2022-11-20T15:43:10;12.57;;;6.95;;
25153;SDS011;47555;51.038;6.280;2022-11-20T15:45:37;15.93;;;7.15;;
25153;SDS011;47555;51.038;6.280;2022-11-20T15:48:12;13.57;;;6.50;;
25153;SDS011;47555;51.038;6.280;2022-11-20T15:50:51;11.88;;;5.97;;
25153;SDS011;47555;51.038;6.280;2022-11-20T15:53:21;10.45;;;5.88;;
25153;SDS011;47555;51.038;6.280;2022-11-20T15:55:46;9.88;;;5.38;;
25153;SDS011;47555;51.038;6.280;2022-11-20T15:58:12;9.50;;;4.93;;
25153;SDS011;47555;51.038;6.280;2022-11-20T16:00:38;8.73;;;4.95;;
25153;SDS011;47555;51.038;6.280;2022-11-20T16:03:03;10.80;;;5.25;;
25153;SDS011;47555;51.038;6.280;2022-11-20T16:05:29;9.07;;;5.20;;
25153;SDS011;47555;51.038;6.280;2022-11-20T16:07:55;6.78;;;4.97;;
25153;SDS011;47555;51.038;6.280;2022-11-20T16:10:21;12.38;;;6.80;;
25153;SDS011;47555;51.038;6.280;2022-11-20T16:12:47;13.40;;;6.00;;
25153;SDS011;47555;51.038;6.280;2022-11-20T16:15:31;9.40;;;6.15;;
25153;SDS011;47555;51.038;6.280;2022-11-20T16:18:16;10.57;;;5.28;;
25153;SDS011;47555;51.038;6.280;2022-11-20T16:20:48;11.70;;;5.40;;
25153;SDS011;47555;51.038;6.280;2022-11-20T16:25:42;11.45;;;8.60;;
25153;SDS011;47555;51.038;6.280;2022-11-20T16:28:09;13.50;;;9.32;;
25153;SDS011;47555;51.038;6.280;2022-11-20T16:30:37;11.57;;;6.55;;
25153;SDS011;47555;51.038;6.280;2022-11-20T16:33:09;25.38;;;15.38;;
25153;SDS011;47555;51.038;6.280;2022-11-20T16:35:36;12.03;;;8.03;;
25153;SDS011;47555;51.038;6.280;2022-11-20T16:38:02;15.57;;;9.02;;
25153;SDS011;47555;51.038;6.280;2022-11-20T16:40:28;7.78;;;4.55;;
25153;SDS011;47555;51.038;6.280;2022-11-20T16:42:53;11.90;;;5.82;;
25153;SDS011;47555;51.038;6.280;2022-11-20T16:45:19;8.63;;;4.85;;
25153;SDS011;47555;51.038;6.280;2022-11-20T16:47:45;8.68;;;4.18;;
25153;SDS011;47555;51.038;6.280;2022-11-20T16:50:10;8.35;;;4.55;;
25153;SDS011;47555;51.038;6.280;2022-11-20T16:52:36;7.05;;;4.00;;